Time;durP1;ratioP1;P1;durP2;ratioP2;P2;SDS_P1;SDS_P2;PMS_P1;PMS_P2;Temp;Humidity;BMP_temperature;BMP_pressure;BME280_temperature;BME280_humidity;BME280_pressure;Samples;Min_cycle;Max_cycle;Signal;HPM_P1;HPM_P2
2021/05/24 00:00:14;;;;;;;9.77;7.78;;;9.30;99.90;;;;;;5059718;28;20373;-70
2021/05/24 00:02:42;;;;;;;8.27;7.47;;;9.30;99.90;;;;;;5058971;28;20208;-70
2021/05/24 00:05:13;;;;;;;13.82;8.80;;;9.30;99.90;;;;;;5055440;28;20245;-70
2021/05/24 00:07:40;;;;;;;9.73;8.70;;;9.30;99.90;;;;;;5058106;28;20449;-69
2021/05/24 00:10:10;;;;;;;9.43;6.72;;;9.20;99.90;;;;;;5059753;28;20254;-70
2021/05/24 00:12:37;;;;;;;10.00;7.53;;;9.20;99.90;;;;;;5057751;28;20208;-70
2021/05/24 00:15:06;;;;;;;10.18;7.25;;;9.20;99.90;;;;;;5044439;28;20264;-71
2021/05/24 00:17:33;;;;;;;12.07;8.32;;;9.20;99.90;;;;;;5059323;28;20209;-69
2021/05/24 00:20:03;;;;;;;12.02;6.55;;;9.30;99.90;;;;;;5059106;28;20231;-70
2021/05/24 00:22:30;;;;;;;9.05;8.13;;;9.20;99.90;;;;;;5039577;28;20212;-69
2021/05/24 00:24:57;;;;;;;9.18;7.32;;;9.20;99.90;;;;;;5038936;28;20227;-69
2021/05/24 00:27:24;;;;;;;8.10;7.30;;;9.00;99.90;;;;;;5052516;28;20255;-69
2021/05/24 00:29:51;;;;;;;7.50;6.78;;;9.10;99.90;;;;;;5049769;28;20214;-70
2021/05/24 00:32:18;;;;;;;8.68;6.75;;;9.10;99.90;;;;;;5040386;28;20452;-69
2021/05/24 00:34:45;;;;;;;9.73;6.53;;;9.00;99.90;;;;;;5048330;28;20211;-73
2021/05/24 00:37:12;;;;;;;8.00;7.20;;;9.00;99.90;;;;;;5056910;28;20468;-70
2021/05/24 00:39:39;;;;;;;8.68;7.55;;;9.10;99.90;;;;;;5046158;28;20219;-70
2021/05/24 00:42:06;;;;;;;9.27;5.82;;;9.10;99.90;;;;;;5059327;28;20243;-69
2021/05/24 00:44:33;;;;;;;6.93;6.32;;;9.00;99.90;;;;;;5057949;28;20212;-70
2021/05/24 00:47:01;;;;;;;7.13;6.40;;;9.00;99.90;;;;;;5058127;28;20207;-70
2021/05/24 00:49:29;;;;;;;9.55;7.43;;;9.00;99.90;;;;;;5056225;28;20452;-70
2021/05/24 00:51:57;;;;;;;7.20;5.60;;;9.00;99.90;;;;;;5041048;28;20217;-70
2021/05/24 00:54:25;;;;;;;10.98;6.40;;;9.00;99.90;;;;;;5057703;28;20246;-70
2021/05/24 00:56:54;;;;;;;6.57;5.97;;;9.00;99.90;;;;;;5090272;28;20562;-70
2021/05/24 00:59:21;;;;;;;8.32;5.75;;;8.90;99.90;;;;;;5089222;28;20212;-70
2021/05/24 01:01:49;;;;;;;8.70;5.50;;;9.00;99.90;;;;;;5058156;28;20494;-70
2021/05/24 01:04:18;;;;;;;8.63;5.13;;;8.80;99.90;;;;;;5056981;28;20521;-70
2021/05/24 01:06:47;;;;;;;8.45;5.50;;;8.70;99.90;;;;;;5058020;28;20212;-69
2021/05/24 01:09:18;;;;;;;6.53;5.95;;;8.70;99.90;;;;;;5058120;28;20207;-70
2021/05/24 01:11:49;;;;;;;9.55;6.95;;;8.80;99.90;;;;;;5056458;28;20208;-70
2021/05/24 01:14:17;;;;;;;6.72;6.07;;;8.80;99.90;;;;;;5057949;28;20441;-71
2021/05/24 01:16:49;;;;;;;6.65;5.93;;;8.60;99.90;;;;;;5057514;28;20247;-69
2021/05/24 01:19:17;;;;;;;5.90;5.32;;;8.60;99.90;;;;;;5058229;28;20203;-69
2021/05/24 01:21:44;;;;;;;8.00;5.65;;;8.60;99.90;;;;;;5088813;28;20258;-69
2021/05/24 01:24:12;;;;;;;4.90;4.40;;;8.60;99.90;;;;;;5058502;28;20213;-70
2021/05/24 01:26:42;;;;;;;7.53;5.40;;;8.60;99.90;;;;;;5056770;28;20211;-70
2021/05/24 01:29:09;;;;;;;7.70;6.45;;;8.70;99.90;;;;;;5055706;28;20208;-70
2021/05/24 01:31:37;;;;;;;7.60;5.35;;;8.60;99.90;;;;;;5058119;28;20715;-70
2021/05/24 01:34:05;;;;;;;7.80;7.00;;;8.30;99.90;;;;;;5054625;28;20207;-71
2021/05/24 01:36:32;;;;;;;8.05;5.80;;;8.10;99.90;;;;;;5057079;28;20227;-70
2021/05/24 01:38:59;;;;;;;8.85;6.60;;;8.30;99.90;;;;;;5057231;28;20204;-70
2021/05/24 01:41:26;;;;;;;7.82;6.45;;;8.30;99.90;;;;;;5057670;28;20249;-70
2021/05/24 01:43:53;;;;;;;6.10;5.47;;;8.30;99.90;;;;;;5056912;28;20209;-70
2021/05/24 01:46:20;;;;;;;6.30;4.75;;;8.40;99.90;;;;;;5057526;28;20264;-69
2021/05/24 01:48:47;;;;;;;8.93;6.80;;;8.40;99.90;;;;;;5056070;28;20234;-70
2021/05/24 01:51:14;;;;;;;6.65;5.75;;;8.40;99.90;;;;;;5051621;28;20207;-69
2021/05/24 01:53:42;;;;;;;7.75;5.80;;;8.60;99.90;;;;;;5045918;28;20302;-69
2021/05/24 01:56:09;;;;;;;7.07;5.82;;;8.60;99.90;;;;;;5056386;28;20227;-69
2021/05/24 01:58:36;;;;;;;6.93;6.20;;;8.70;99.90;;;;;;5056529;28;20219;-69
2021/05/24 02:01:09;;;;;;;8.02;5.63;;;8.50;99.90;;;;;;5057064;28;20230;-68
2021/05/24 02:03:37;;;;;;;6.43;5.15;;;8.40;99.90;;;;;;5053002;28;20211;-70
2021/05/24 02:06:05;;;;;;;11.52;6.75;;;8.10;99.90;;;;;;5051100;28;20226;-69
2021/05/24 02:08:33;;;;;;;10.65;6.60;;;8.00;99.90;;;;;;5056150;28;20250;-69
2021/05/24 02:11:02;;;;;;;10.75;6.72;;;7.90;99.90;;;;;;5056262;28;20203;-68
2021/05/24 02:13:30;;;;;;;11.07;6.70;;;8.00;99.90;;;;;;5041797;28;20236;-68
2021/05/24 02:15:57;;;;;;;9.07;6.88;;;8.10;99.90;;;;;;5056332;28;20231;-68
2021/05/24 02:18:24;;;;;;;8.07;6.70;;;8.20;99.90;;;;;;5054063;28;20274;-68
2021/05/24 02:20:51;;;;;;;6.40;5.75;;;8.20;99.90;;;;;;5037641;28;20207;-69
2021/05/24 02:23:19;;;;;;;30.70;7.80;;;8.20;99.90;;;;;;5051326;28;20279;-69
2021/05/24 02:25:46;;;;;;;8.95;6.55;;;8.00;99.90;;;;;;5057262;28;20214;-69
2021/05/24 02:28:13;;;;;;;9.02;6.78;;;7.90;99.90;;;;;;5057130;28;20214;-68
2021/05/24 02:30:40;;;;;;;10.55;7.03;;;7.90;99.90;;;;;;5056227;28;20204;-69
2021/05/24 02:33:07;;;;;;;10.35;6.88;;;7.90;99.90;;;;;;5056757;28;20234;-69
2021/05/24 02:35:35;;;;;;;7.55;6.68;;;8.00;99.90;;;;;;5056888;28;20231;-70
2021/05/24 02:38:04;;;;;;;14.00;7.65;;;8.10;99.90;;;;;;5056379;28;20488;-69
2021/05/24 02:40:32;;;;;;;6.82;6.15;;;8.00;99.90;;;;;;5056868;28;20243;-69
2021/05/24 02:43:01;;;;;;;9.07;7.70;;;8.10;99.90;;;;;;5056692;28;20207;-69
2021/05/24 02:45:28;;;;;;;9.32;6.72;;;8.10;99.90;;;;;;5080626;28;20510;-69
2021/05/24 02:47:56;;;;;;;8.20;7.35;;;8.10;99.90;;;;;;5056757;28;20271;-69
2021/05/24 02:50:25;;;;;;;7.35;6.65;;;8.10;99.90;;;;;;5055906;28;20223;-69
2021/05/24 02:52:53;;;;;;;10.02;6.15;;;8.10;99.90;;;;;;5056688;28;20204;-70
2021/05/24 02:55:21;;;;;;;7.50;6.80;;;8.10;99.90;;;;;;5043922;28;20458;-70
2021/05/24 02:57:48;;;;;;;13.38;7.00;;;8.20;99.90;;;;;;5055201;28;20514;-71
2021/05/24 03:00:15;;;;;;;16.10;6.05;;;8.10;99.90;;;;;;5054682;28;20200;-69
2021/05/24 03:02:46;;;;;;;9.45;6.07;;;8.00;99.90;;;;;;5056547;28;20222;-68
2021/05/24 03:05:18;;;;;;;7.65;6.90;;;8.10;99.90;;;;;;5056385;28;20204;-70
2021/05/24 03:07:46;;;;;;;9.93;6.53;;;8.00;99.90;;;;;;5057538;28;20211;-69
2021/05/24 03:10:15;;;;;;;12.13;5.93;;;8.00;99.90;;;;;;5056661;28;20207;-69
2021/05/24 03:12:42;;;;;;;6.20;5.60;;;8.00;99.90;;;;;;5053885;28;20522;-69
2021/05/24 03:15:11;;;;;;;7.68;5.70;;;8.20;99.90;;;;;;5055787;28;20204;-69
2021/05/24 03:17:39;;;;;;;12.93;6.93;;;8.10;99.90;;;;;;5039952;28;20446;-69
2021/05/24 03:20:08;;;;;;;5.72;5.22;;;8.10;99.90;;;;;;5040028;28;20757;-69
2021/05/24 03:22:35;;;;;;;7.53;5.82;;;8.10;99.90;;;;;;5039964;28;20231;-69
2021/05/24 03:25:04;;;;;;;7.30;5.05;;;8.10;99.90;;;;;;5048270;28;20254;-68
2021/05/24 03:27:31;;;;;;;6.40;5.80;;;8.00;99.90;;;;;;5047239;28;20470;-68
2021/05/24 03:29:59;;;;;;;7.15;5.53;;;7.90;99.90;;;;;;5060183;28;20207;-69
2021/05/24 03:32:26;;;;;;;5.30;4.90;;;8.20;99.90;;;;;;5053767;28;20532;-69
2021/05/24 03:34:53;;;;;;;5.57;5.07;;;8.20;99.90;;;;;;5039985;28;20218;-68
2021/05/24 03:37:20;;;;;;;6.35;5.70;;;8.30;99.90;;;;;;5049828;28;20231;-68
2021/05/24 03:39:47;;;;;;;6.55;5.53;;;8.40;99.90;;;;;;5056688;28;20211;-70
2021/05/24 03:42:14;;;;;;;5.65;5.03;;;8.60;99.90;;;;;;5057060;28;20313;-67
2021/05/24 03:44:43;;;;;;;5.25;4.85;;;8.70;99.90;;;;;;5055082;28;20259;-69
2021/05/24 03:47:12;;;;;;;5.70;4.95;;;8.90;99.90;;;;;;5045708;28;20219;-68
2021/05/24 03:49:44;;;;;;;6.32;5.72;;;9.00;99.90;;;;;;5050506;28;20386;-68
2021/05/24 03:52:13;;;;;;;6.68;5.63;;;9.10;99.90;;;;;;5059983;28;20529;-69
2021/05/24 03:54:40;;;;;;;7.78;6.05;;;9.10;99.90;;;;;;5058882;28;20506;-69
2021/05/24 03:57:09;;;;;;;9.77;4.95;;;9.20;99.90;;;;;;5059696;28;20414;-69
2021/05/24 03:59:36;;;;;;;5.90;5.05;;;9.40;99.90;;;;;;5058036;28;20217;-68
2021/05/24 04:02:04;;;;;;;5.65;4.70;;;9.50;99.90;;;;;;5059668;28;20212;-69
2021/05/24 04:04:31;;;;;;;5.68;5.18;;;9.60;99.90;;;;;;5056925;28;20285;-68
2021/05/24 04:07:00;;;;;;;8.48;5.85;;;9.60;99.90;;;;;;5057195;28;20225;-69
2021/05/24 04:09:28;;;;;;;7.78;5.95;;;9.80;99.90;;;;;;5057572;28;20205;-69
2021/05/24 04:11:55;;;;;;;7.32;5.70;;;9.90;99.90;;;;;;5059174;28;20209;-69
2021/05/24 04:14:22;;;;;;;6.32;5.68;;;9.90;99.90;;;;;;5058328;28;20209;-71
2021/05/24 04:16:49;;;;;;;6.45;5.85;;;10.00;99.90;;;;;;5043950;28;20233;-70
2021/05/24 04:19:16;;;;;;;8.90;5.57;;;10.00;99.90;;;;;;5059308;28;20209;-68
2021/05/24 04:21:44;;;;;;;6.38;5.80;;;10.00;99.90;;;;;;5057753;28;20214;-70
2021/05/24 04:24:13;;;;;;;7.55;6.25;;;10.10;99.90;;;;;;5058817;28;20206;-69
2021/05/24 04:26:41;;;;;;;6.95;5.55;;;10.20;99.90;;;;;;5056872;28;20392;-70
2021/05/24 04:29:08;;;;;;;6.93;5.72;;;10.20;99.90;;;;;;5057430;28;20236;-70
2021/05/24 04:31:36;;;;;;;7.00;5.10;;;10.30;99.90;;;;;;5058481;28;20562;-69
2021/05/24 04:34:03;;;;;;;5.68;5.18;;;10.30;99.90;;;;;;5057260;28;20213;-70
2021/05/24 04:36:31;;;;;;;6.00;5.28;;;10.40;99.90;;;;;;5056730;28;20268;-70
2021/05/24 04:38:58;;;;;;;6.20;5.38;;;10.50;99.90;;;;;;5058731;28;20206;-69
2021/05/24 04:41:25;;;;;;;6.00;4.70;;;10.60;99.90;;;;;;5060529;28;20245;-70
2021/05/24 04:44:08;;;;;;;6.15;5.65;;;10.70;99.90;;;;;;5055717;28;20209;-69
2021/05/24 04:46:35;;;;;;;6.25;5.45;;;10.80;99.90;;;;;;5051131;28;20508;-70
2021/05/24 04:49:02;;;;;;;5.88;4.97;;;11.00;99.90;;;;;;5055897;28;20213;-70
2021/05/24 04:51:29;;;;;;;6.50;5.28;;;11.10;99.90;;;;;;5057210;28;20612;-70
2021/05/24 04:53:56;;;;;;;3.75;3.38;;;11.20;99.90;;;;;;5048134;28;20409;-70
2021/05/24 04:56:23;;;;;;;5.85;4.10;;;11.30;99.90;;;;;;5057620;28;20233;-70
2021/05/24 04:58:50;;;;;;;3.75;3.42;;;11.40;99.90;;;;;;5057951;28;20207;-71
2021/05/24 05:01:17;;;;;;;5.05;4.50;;;11.50;99.90;;;;;;5051854;28;20397;-69
2021/05/24 05:03:44;;;;;;;4.30;3.90;;;11.50;99.90;;;;;;5054164;28;20208;-70
2021/05/24 05:06:11;;;;;;;4.28;3.97;;;11.60;99.90;;;;;;5056208;28;20211;-70
2021/05/24 05:08:38;;;;;;;7.00;3.45;;;11.80;99.90;;;;;;5049140;28;20206;-70
2021/05/24 05:11:05;;;;;;;3.10;2.90;;;12.00;99.90;;;;;;5048328;28;20211;-70
2021/05/24 05:13:32;;;;;;;6.97;3.13;;;12.20;99.90;;;;;;5044410;28;20198;-71
2021/05/24 05:15:59;;;;;;;2.85;2.60;;;12.40;99.90;;;;;;5057834;28;20214;-71
2021/05/24 05:18:26;;;;;;;2.80;2.60;;;12.50;99.90;;;;;;5053943;28;20215;-71
2021/05/24 05:20:53;;;;;;;2.45;2.25;;;12.70;99.90;;;;;;5037282;28;20506;-70
2021/05/24 05:23:21;;;;;;;4.65;2.35;;;12.80;99.90;;;;;;5038066;28;20349;-70
2021/05/24 05:25:48;;;;;;;3.10;2.80;;;13.00;99.90;;;;;;5057259;28;20520;-70
2021/05/24 05:28:16;;;;;;;2.40;2.20;;;13.10;99.90;;;;;;5057972;28;20207;-70
2021/05/24 05:30:43;;;;;;;4.75;2.05;;;13.30;99.90;;;;;;5057839;28;20230;-70
2021/05/24 05:33:10;;;;;;;2.80;2.60;;;13.30;99.90;;;;;;5056988;28;20230;-70
2021/05/24 05:35:37;;;;;;;2.75;2.50;;;13.50;99.90;;;;;;5038355;28;20294;-71
2021/05/24 05:38:04;;;;;;;6.75;2.75;;;13.60;99.90;;;;;;5053402;28;20238;-70
2021/05/24 05:40:33;;;;;;;2.10;2.00;;;13.80;99.90;;;;;;5057111;28;20243;-70
2021/05/24 05:43:00;;;;;;;3.33;2.45;;;13.90;99.90;;;;;;5050337;28;20200;-71
2021/05/24 05:45:27;;;;;;;2.65;2.45;;;14.00;99.90;;;;;;5052686;28;20206;-71
2021/05/24 05:47:54;;;;;;;3.35;2.45;;;14.30;99.90;;;;;;5057382;28;20604;-70
2021/05/24 05:50:22;;;;;;;3.28;2.65;;;14.30;99.90;;;;;;5045735;28;20560;-70
2021/05/24 05:52:49;;;;;;;3.47;2.85;;;14.50;99.90;;;;;;5050496;28;20242;-70
2021/05/24 05:55:16;;;;;;;3.55;2.40;;;14.90;99.90;;;;;;5051173;28;20442;-72
2021/05/24 05:57:43;;;;;;;2.40;2.20;;;15.30;99.80;;;;;;5057076;28;20233;-70
2021/05/24 06:00:10;;;;;;;3.28;2.40;;;15.70;98.70;;;;;;5051159;28;20205;-70
2021/05/24 06:02:37;;;;;;;2.53;2.20;;;16.10;98.40;;;;;;5056760;28;20470;-69
2021/05/24 06:05:11;;;;;;;2.60;2.27;;;16.40;97.70;;;;;;5051036;28;20424;-69
2021/05/24 06:07:38;;;;;;;2.17;2.07;;;16.90;96.90;;;;;;5055922;28;20425;-69
2021/05/24 06:10:06;;;;;;;2.80;2.43;;;17.20;95.90;;;;;;5045358;28;20789;-71
2021/05/24 06:12:34;;;;;;;2.90;2.30;;;17.40;96.00;;;;;;5052179;28;20475;-70
2021/05/24 06:15:02;;;;;;;4.70;3.00;;;17.80;96.10;;;;;;5055416;28;20846;-70
2021/05/24 06:17:29;;;;;;;4.77;3.00;;;18.00;95.00;;;;;;5056457;28;20698;-69
2021/05/24 06:19:57;;;;;;;2.97;2.77;;;18.20;94.40;;;;;;5055237;28;20607;-70
2021/05/24 06:22:24;;;;;;;2.97;2.77;;;18.50;93.50;;;;;;5055930;28;20417;-70
2021/05/24 06:24:51;;;;;;;3.20;3.00;;;18.70;93.20;;;;;;5057384;28;20448;-72
2021/05/24 06:27:18;;;;;;;6.60;3.20;;;18.40;93.40;;;;;;5043702;28;20450;-70
2021/05/24 06:29:45;;;;;;;3.40;3.10;;;18.50;93.50;;;;;;5056858;28;20451;-71
2021/05/24 06:32:12;;;;;;;3.10;2.80;;;18.60;93.20;;;;;;5055894;28;20466;-70
2021/05/24 06:34:39;;;;;;;2.97;2.87;;;18.60;93.10;;;;;;5047027;28;20423;-70
2021/05/24 06:37:06;;;;;;;3.37;3.07;;;18.50;92.70;;;;;;5053350;28;20484;-70
2021/05/24 06:39:34;;;;;;;3.30;3.00;;;18.50;92.90;;;;;;5057148;28;20443;-70
2021/05/24 06:42:01;;;;;;;3.53;3.20;;;18.50;93.40;;;;;;5057278;28;20669;-70
2021/05/24 06:44:29;;;;;;;3.90;3.60;;;18.50;93.50;;;;;;5055621;28;20447;-70
2021/05/24 06:46:56;;;;;;;3.50;3.20;;;18.70;93.40;;;;;;5055933;28;20423;-70
2021/05/24 06:49:27;;;;;;;3.87;3.67;;;18.90;93.10;;;;;;5051652;28;20422;-70
2021/05/24 06:51:55;;;;;;;3.10;3.00;;;18.40;93.40;;;;;;5059391;28;20511;-71
2021/05/24 06:54:22;;;;;;;4.33;3.43;;;18.60;93.60;;;;;;5059485;28;20425;-72
2021/05/24 06:56:49;;;;;;;3.27;2.90;;;18.80;92.70;;;;;;5060085;28;20871;-70
2021/05/24 06:59:16;;;;;;;4.00;3.80;;;18.30;93.40;;;;;;5057124;28;20418;-71
2021/05/24 07:01:43;;;;;;;7.20;3.33;;;18.60;93.70;;;;;;5059360;28;20739;-70
2021/05/24 07:04:10;;;;;;;3.20;3.00;;;18.60;93.20;;;;;;5058191;28;20444;-71
2021/05/24 07:06:37;;;;;;;2.63;2.43;;;18.40;93.70;;;;;;5058519;28;20423;-71
2021/05/24 07:09:06;;;;;;;3.57;3.37;;;18.20;93.60;;;;;;5058483;28;20797;-70
2021/05/24 07:11:33;;;;;;;3.20;2.90;;;18.40;93.50;;;;;;5059380;28;20719;-70
2021/05/24 07:14:00;;;;;;;2.70;2.50;;;18.70;93.10;;;;;;5059789;28;20808;-71
2021/05/24 07:16:27;;;;;;;3.00;2.80;;;18.70;93.40;;;;;;5058566;28;20644;-71
2021/05/24 07:18:54;;;;;;;3.03;2.90;;;19.00;93.20;;;;;;5053256;28;20469;-71
2021/05/24 07:21:21;;;;;;;6.53;3.63;;;19.20;92.10;;;;;;5040275;28;20513;-72
2021/05/24 07:23:48;;;;;;;5.13;3.60;;;19.40;92.30;;;;;;5085389;28;20422;-71
2021/05/24 07:26:16;;;;;;;3.10;2.90;;;19.70;91.50;;;;;;5051266;28;20427;-70
2021/05/24 07:28:43;;;;;;;3.60;3.40;;;20.00;90.80;;;;;;5045636;28;20440;-70
2021/05/24 07:31:10;;;;;;;3.50;3.30;;;20.10;90.70;;;;;;5059902;28;20444;-70
2021/05/24 07:33:37;;;;;;;3.60;3.30;;;19.90;90.90;;;;;;5045288;28;20539;-71
2021/05/24 07:36:05;;;;;;;3.87;3.67;;;19.50;90.90;;;;;;5059912;28;20414;-70
2021/05/24 07:38:32;;;;;;;3.77;3.57;;;19.10;91.10;;;;;;5053823;28;20480;-70
2021/05/24 07:40:59;;;;;;;3.33;3.23;;;19.00;90.90;;;;;;5059086;28;20442;-69
2021/05/24 07:43:26;;;;;;;3.40;3.20;;;19.20;90.10;;;;;;5057414;28;20421;-71
2021/05/24 07:45:53;;;;;;;3.30;3.10;;;19.40;90.20;;;;;;5087158;28;20741;-69
2021/05/24 07:48:20;;;;;;;4.00;3.80;;;19.50;88.20;;;;;;5073034;28;20458;-70
2021/05/24 07:50:47;;;;;;;3.80;3.47;;;19.40;87.70;;;;;;5056690;28;20423;-71
2021/05/24 07:53:14;;;;;;;3.60;3.50;;;19.30;85.90;;;;;;5055058;28;20444;-70
2021/05/24 07:55:41;;;;;;;4.07;3.67;;;19.10;87.10;;;;;;5055819;28;20487;-70
2021/05/24 07:58:08;;;;;;;3.10;3.00;;;19.20;85.20;;;;;;5056117;28;20695;-69
2021/05/24 08:00:36;;;;;;;3.20;3.00;;;19.40;84.80;;;;;;5060036;28;20426;-69
2021/05/24 08:03:03;;;;;;;3.57;3.37;;;19.80;83.50;;;;;;5055333;28;20463;-70
2021/05/24 08:05:30;;;;;;;3.80;3.60;;;19.10;85.10;;;;;;5060059;28;20427;-68
2021/05/24 08:07:57;;;;;;;10.17;3.67;;;19.10;85.90;;;;;;5050504;28;20423;-70
2021/05/24 08:10:25;;;;;;;3.90;3.60;;;19.50;85.70;;;;;;5059543;28;20469;-71
2021/05/24 08:12:52;;;;;;;6.43;3.80;;;20.20;83.60;;;;;;5046364;28;20487;-70
2021/05/24 08:15:29;;;;;;;3.70;3.50;;;20.90;83.30;;;;;;5044010;28;20625;-70
2021/05/24 08:18:02;;;;;;;3.47;3.33;;;20.60;82.10;;;;;;5047575;28;20493;-70
2021/05/24 08:20:29;;;;;;;4.00;3.70;;;20.70;81.50;;;;;;5045695;28;20441;-72
2021/05/24 08:22:56;;;;;;;3.80;3.60;;;20.50;82.20;;;;;;5059841;28;20425;-70
2021/05/24 08:25:24;;;;;;;4.10;3.90;;;20.20;83.40;;;;;;5044950;28;20712;-71
2021/05/24 08:27:51;;;;;;;4.20;4.00;;;20.30;83.00;;;;;;5059733;28;20601;-70
2021/05/24 08:30:29;;;;;;;3.83;3.63;;;19.90;84.30;;;;;;5058777;28;20448;-72
2021/05/24 08:32:56;;;;;;;3.77;3.67;;;19.60;85.40;;;;;;5050043;28;20507;-70
2021/05/24 08:35:23;;;;;;;4.07;3.87;;;20.00;83.90;;;;;;5054453;28;20423;-71
2021/05/24 08:37:50;;;;;;;4.27;3.97;;;20.10;83.30;;;;;;5057622;28;20519;-71
2021/05/24 08:40:18;;;;;;;4.20;3.90;;;20.10;82.90;;;;;;5058608;28;20456;-70
2021/05/24 08:42:46;;;;;;;3.27;3.17;;;19.90;84.10;;;;;;5059241;28;20496;-71
2021/05/24 08:45:13;;;;;;;3.90;3.60;;;20.10;83.60;;;;;;5058601;28;20457;-72
2021/05/24 08:47:41;;;;;;;4.10;3.90;;;20.10;85.20;;;;;;5057446;28;20508;-71
2021/05/24 08:50:13;;;;;;;3.60;3.40;;;20.30;82.90;;;;;;5059593;28;20448;-71
2021/05/24 08:52:40;;;;;;;3.73;3.53;;;20.20;83.70;;;;;;5058345;28;20433;-70
2021/05/24 08:55:10;;;;;;;5.13;4.17;;;20.50;82.80;;;;;;5044247;28;20745;-70
2021/05/24 08:57:41;;;;;;;4.13;3.93;;;20.90;81.50;;;;;;5047455;28;20681;-71
2021/05/24 09:00:12;;;;;;;4.10;3.80;;;21.50;79.50;;;;;;5052884;28;20443;-70
2021/05/24 09:02:44;;;;;;;3.90;3.70;;;22.30;78.00;;;;;;5046051;28;20744;-69
2021/05/24 09:05:11;;;;;;;4.10;3.90;;;22.00;75.80;;;;;;5056899;28;20427;-71
2021/05/24 09:07:52;;;;;;;4.33;3.70;;;21.80;79.20;;;;;;5058206;28;20425;-70
2021/05/24 09:10:22;;;;;;;4.33;4.03;;;22.00;78.80;;;;;;5052078;28;20424;-71
2021/05/24 09:12:50;;;;;;;4.30;4.00;;;21.50;77.00;;;;;;5056222;28;20425;-71
2021/05/24 09:15:18;;;;;;;4.40;4.10;;;20.80;78.50;;;;;;5053408;28;20525;-70
2021/05/24 09:17:53;;;;;;;5.20;4.80;;;21.10;79.00;;;;;;5048601;28;20462;-70
2021/05/24 09:20:40;;;;;;;4.03;3.80;;;21.00;79.40;;;;;;5057624;28;20460;-70
2021/05/24 09:23:17;;;;;;;4.87;4.57;;;20.90;79.20;;;;;;5058479;28;20515;-73
2021/05/24 09:25:49;;;;;;;4.40;4.20;;;20.70;79.60;;;;;;5045863;28;20443;-70
2021/05/24 09:28:31;;;;;;;4.10;3.90;;;20.20;81.70;;;;;;5058368;28;20441;-71
2021/05/24 09:31:06;;;;;;;3.93;3.77;;;20.20;82.20;;;;;;5058967;28;20412;-71
2021/05/24 09:33:35;;;;;;;4.47;4.00;;;20.10;80.90;;;;;;5057344;28;20812;-71
2021/05/24 09:36:03;;;;;;;4.03;3.93;;;19.90;81.80;;;;;;5058521;28;20741;-70
2021/05/24 09:38:39;;;;;;;4.37;4.07;;;20.20;81.70;;;;;;5050202;28;20476;-71
2021/05/24 09:41:07;;;;;;;3.70;3.50;;;20.50;81.30;;;;;;5051427;28;20450;-73
2021/05/24 09:43:40;;;;;;;4.20;3.90;;;20.60;79.40;;;;;;5056058;28;21185;-70
2021/05/24 09:46:11;;;;;;;4.53;4.10;;;20.50;80.10;;;;;;5054320;28;20409;-70
2021/05/24 09:48:39;;;;;;;4.07;3.80;;;20.70;79.50;;;;;;5054503;28;20522;-72
2021/05/24 09:51:09;;;;;;;4.30;4.00;;;20.60;79.80;;;;;;5054290;28;20445;-71
2021/05/24 09:53:36;;;;;;;3.67;3.57;;;20.60;79.40;;;;;;5056807;28;20712;-70
2021/05/24 09:56:06;;;;;;;3.83;3.63;;;20.60;79.30;;;;;;5055808;28;20423;-71
2021/05/24 09:58:33;;;;;;;4.13;3.97;;;20.60;78.70;;;;;;5049359;28;20481;-71
2021/05/24 10:01:19;;;;;;;3.90;3.70;;;20.50;80.20;;;;;;5053413;28;20441;-72
2021/05/24 10:03:46;;;;;;;3.60;3.50;;;20.90;79.30;;;;;;5039599;28;20420;-70
2021/05/24 10:06:14;;;;;;;3.77;3.60;;;21.60;76.10;;;;;;5053758;28;20416;-72
2021/05/24 10:08:41;;;;;;;3.60;3.50;;;21.70;75.30;;;;;;5048428;28;20451;-72
2021/05/24 10:11:09;;;;;;;3.67;3.53;;;21.70;73.70;;;;;;5041876;28;20731;-71
2021/05/24 10:13:37;;;;;;;3.80;3.50;;;21.60;74.30;;;;;;5057160;28;20743;-71
2021/05/24 10:16:05;;;;;;;3.97;3.70;;;21.30;75.10;;;;;;5058074;28;20770;-72
2021/05/24 10:18:33;;;;;;;4.80;4.40;;;21.30;76.80;;;;;;5055734;28;20457;-71
2021/05/24 10:21:01;;;;;;;4.33;4.10;;;21.70;76.50;;;;;;5057364;28;20459;-70
2021/05/24 10:23:30;;;;;;;5.13;4.40;;;22.30;74.20;;;;;;5054377;28;20453;-72
2021/05/24 10:26:00;;;;;;;5.93;3.90;;;22.60;72.70;;;;;;5057448;28;20449;-70
2021/05/24 10:28:28;;;;;;;3.93;3.83;;;22.60;74.10;;;;;;5055740;28;20453;-71
2021/05/24 10:31:03;;;;;;;4.77;4.30;;;22.30;73.70;;;;;;5057777;28;20443;-69
2021/05/24 10:33:42;;;;;;;4.23;4.03;;;22.80;71.30;;;;;;5053922;28;20797;-71
2021/05/24 10:36:18;;;;;;;4.10;3.90;;;22.40;72.40;;;;;;5054838;28;20477;-71
2021/05/24 10:39:29;;;;;;;4.17;4.07;;;22.20;73.90;;;;;;5056723;28;20495;-72
2021/05/24 10:41:56;;;;;;;4.40;4.30;;;22.40;70.00;;;;;;5055147;28;20457;-70
2021/05/24 10:44:42;;;;;;;4.37;4.17;;;21.90;71.10;;;;;;5053463;28;20414;-72
2021/05/24 10:47:23;;;;;;;4.30;4.20;;;21.80;70.90;;;;;;5054556;28;20412;-71
2021/05/24 10:50:08;;;;;;;4.00;3.80;;;21.80;72.90;;;;;;5056231;28;20602;-73
2021/05/24 10:52:39;;;;;;;4.20;4.00;;;21.90;71.20;;;;;;5053451;28;20775;-71
2021/05/24 10:55:25;;;;;;;5.97;5.50;;;22.30;71.10;;;;;;5056156;28;21013;-70
2021/05/24 10:57:59;;;;;;;3.80;3.60;;;22.90;70.10;;;;;;5070720;28;20499;-70
2021/05/24 11:00:27;;;;;;;4.10;3.90;;;22.40;69.80;;;;;;5052926;28;20801;-72
2021/05/24 11:02:55;;;;;;;4.30;4.00;;;22.10;70.70;;;;;;5055684;28;20634;-70
2021/05/24 11:05:31;;;;;;;3.90;3.80;;;22.50;70.50;;;;;;5054429;28;20450;-71
2021/05/24 11:08:00;;;;;;;4.00;3.70;;;22.90;70.60;;;;;;5055721;28;20684;-73
2021/05/24 11:10:33;;;;;;;4.17;3.97;;;23.10;69.30;;;;;;5054837;28;20448;-70
2021/05/24 11:13:11;;;;;;;4.57;4.27;;;23.40;69.60;;;;;;5056479;28;20457;-70
2021/05/24 11:15:43;;;;;;;6.23;4.30;;;23.30;69.50;;;;;;5057345;28;20599;-71
2021/05/24 11:18:17;;;;;;;4.03;3.93;;;23.10;69.80;;;;;;5056895;28;20461;-71
2021/05/24 11:20:53;;;;;;;4.17;3.97;;;22.80;68.60;;;;;;5054011;28;20414;-70
2021/05/24 11:26:21;;;;;;;4.30;4.00;;;21.90;72.40;;;;;;5046375;28;20506;-70
2021/05/24 11:29:06;;;;;;;4.83;4.63;;;21.80;74.20;;;;;;5056493;28;20797;-70
2021/05/24 11:31:36;;;;;;;4.33;4.13;;;21.90;71.90;;;;;;5056867;28;20413;-70
2021/05/24 11:34:08;;;;;;;4.70;4.50;;;21.60;72.60;;;;;;5053209;28;20435;-71
2021/05/24 11:36:35;;;;;;;4.10;3.90;;;21.40;73.90;;;;;;5059077;28;20446;-73
2021/05/24 11:39:11;;;;;;;4.30;4.10;;;21.50;74.70;;;;;;5054169;28;20453;-71
2021/05/24 11:41:47;;;;;;;4.47;4.27;;;21.90;74.40;;;;;;5053228;28;20475;-73
2021/05/24 11:44:14;;;;;;;4.30;4.10;;;21.90;73.60;;;;;;5049300;28;20632;-70
2021/05/24 11:46:51;;;;;;;3.93;3.73;;;21.60;73.30;;;;;;5053193;28;20477;-72
2021/05/24 11:49:28;;;;;;;4.13;4.00;;;21.40;74.20;;;;;;5050367;28;20614;-71
2021/05/24 11:51:56;;;;;;;4.30;4.10;;;21.60;74.00;;;;;;5052948;28;20447;-70
2021/05/24 11:54:26;;;;;;;4.90;4.50;;;22.10;72.50;;;;;;5058561;28;20438;-71
2021/05/24 11:56:55;;;;;;;4.43;4.23;;;21.50;73.90;;;;;;5059531;28;20446;-71
2021/05/24 11:59:25;;;;;;;5.17;4.77;;;21.40;73.80;;;;;;5062705;28;20951;-70
2021/05/24 12:01:53;;;;;;;4.07;3.90;;;21.60;74.60;;;;;;5053903;28;20492;-70
2021/05/24 12:04:26;;;;;;;3.90;3.70;;;21.90;72.50;;;;;;5057129;28;20451;-71
2021/05/24 12:06:54;;;;;;;4.43;4.23;;;22.10;71.60;;;;;;5056652;28;20444;-71
2021/05/24 12:09:36;;;;;;;4.83;4.53;;;22.10;72.70;;;;;;5056425;28;20955;-69
2021/05/24 12:12:15;;;;;;;5.20;4.90;;;22.20;72.20;;;;;;5056957;28;20437;-70
2021/05/24 12:14:48;;;;;;;5.00;4.80;;;22.10;74.00;;;;;;5057253;28;20420;-70
2021/05/24 12:17:26;;;;;;;5.30;4.20;;;22.30;71.60;;;;;;5057861;28;20420;-71
2021/05/24 12:19:55;;;;;;;4.43;4.23;;;22.30;72.10;;;;;;5058867;28;20461;-70
2021/05/24 12:22:26;;;;;;;4.70;4.50;;;22.80;71.50;;;;;;5059444;28;20456;-70
2021/05/24 12:24:55;;;;;;;5.60;4.70;;;22.90;71.50;;;;;;5057176;28;20437;-71
2021/05/24 12:27:26;;;;;;;4.60;4.40;;;23.10;68.70;;;;;;5055090;28;20445;-75
2021/05/24 12:30:13;;;;;;;5.10;4.70;;;22.50;69.70;;;;;;5059878;28;20453;-69
2021/05/24 12:32:47;;;;;;;3.80;3.70;;;22.50;70.20;;;;;;5059251;28;20618;-71
2021/05/24 12:35:19;;;;;;;4.10;4.00;;;22.60;69.10;;;;;;5054965;28;20779;-71
2021/05/24 12:37:51;;;;;;;4.50;4.27;;;22.70;69.90;;;;;;5059145;28;20472;-72
2021/05/24 12:40:18;;;;;;;4.13;4.03;;;23.20;68.70;;;;;;5058964;28;20444;-71
2021/05/24 12:42:49;;;;;;;5.10;4.33;;;22.90;65.90;;;;;;5056541;28;20448;-71
2021/05/24 12:45:24;;;;;;;4.80;4.50;;;22.30;67.20;;;;;;5052803;28;20469;-71
2021/05/24 12:47:52;;;;;;;4.70;4.40;;;22.50;68.50;;;;;;5046581;28;20437;-74
2021/05/24 12:50:20;;;;;;;4.50;4.20;;;22.60;66.40;;;;;;5050118;28;20462;-70
2021/05/24 12:52:47;;;;;;;4.97;4.77;;;22.90;66.30;;;;;;5057843;28;20444;-72
2021/05/24 12:55:16;;;;;;;4.63;4.43;;;23.10;64.60;;;;;;5056585;28;20440;-72
2021/05/24 12:57:48;;;;;;;4.10;3.90;;;22.90;65.00;;;;;;5056659;28;20432;-72
2021/05/24 13:00:17;;;;;;;4.20;4.10;;;22.70;61.90;;;;;;5059119;28;20422;-72
2021/05/24 13:02:50;;;;;;;3.70;3.60;;;22.60;58.70;;;;;;5057615;28;20438;-72